Time;durP1;ratioP1;P1;durP2;ratioP2;P2;SDS_P1;SDS_P2;PMS_P1;PMS_P2;Temp;Humidity;BMP_temperature;BMP_pressure;BME280_temperature;BME280_humidity;BME280_pressure;Samples;Min_cycle;Max_cycle;Signal;HPM_P1;HPM_P2
2021/12/09 00:00:43;;;;;;;;;;;7.00;99.90;;;;;;4905660;29;20033;-71
2021/12/09 00:03:09;;;;;;;;;;;7.10;99.90;;;;;;4908759;29;20261;-70
2021/12/09 00:05:36;;;;;;;;;;;7.00;99.90;;;;;;4902089;29;19911;-70
2021/12/09 00:08:03;;;;;;;;;;;7.00;99.90;;;;;;4912389;29;19918;-71
2021/12/09 00:10:28;;;;;;;;;;;7.00;99.90;;;;;;4912771;29;20345;-71
2021/12/09 00:12:54;;;;;;;;;;;7.00;99.90;;;;;;4898777;29;19938;-70
2021/12/09 00:15:21;;;;;;;;;;;7.00;99.90;;;;;;4903727;29;19918;-70
2021/12/09 00:17:46;;;;;;;;;;;7.00;99.90;;;;;;4906407;29;19917;-71
2021/12/09 00:20:13;;;;;;;;;;;7.00;99.90;;;;;;4903489;29;20009;-70
2021/12/09 00:22:39;;;;;;;;;;;7.00;99.90;;;;;;4912456;29;19911;-71
2021/12/09 00:25:04;;;;;;;;;;;7.00;99.90;;;;;;4906636;29;19915;-69
2021/12/09 00:27:30;;;;;;;;;;;6.90;99.90;;;;;;4913403;29;19911;-71
2021/12/09 00:29:56;;;;;;;;;;;6.90;99.90;;;;;;4902787;29;20022;-71
2021/12/09 00:32:21;;;;;;;;;;;6.90;99.90;;;;;;4908246;29;19919;-70
2021/12/09 00:34:49;;;;;;;;;;;6.90;99.90;;;;;;4909038;29;19959;-69
2021/12/09 00:37:20;;;;;;;;;;;6.90;99.90;;;;;;4907542;29;20317;-69
2021/12/09 00:39:49;;;;;;;;;;;6.90;99.90;;;;;;4911645;29;19946;-70
2021/12/09 00:42:15;;;;;;;;;;;6.90;99.90;;;;;;4905683;29;19946;-69
2021/12/09 00:44:41;;;;;;;;;;;6.90;99.90;;;;;;4913478;29;19953;-72
2021/12/09 00:47:07;;;;;;;;;;;6.90;99.90;;;;;;4911456;29;19935;-70
2021/12/09 00:49:32;;;;;;;;;;;6.90;99.90;;;;;;4908837;29;19915;-70
2021/12/09 00:51:58;;;;;;;;;;;6.90;99.90;;;;;;4914742;29;19919;-70
2021/12/09 00:54:24;;;;;;;;;;;6.90;99.90;;;;;;4916179;29;19911;-70
2021/12/09 00:56:50;;;;;;;;;;;7.00;99.90;;;;;;4903015;29;19923;-69
2021/12/09 00:59:16;;;;;;;;;;;7.00;99.90;;;;;;4904273;29;19911;-70
2021/12/09 01:01:41;;;;;;;;;;;7.10;99.90;;;;;;4914196;29;19918;-70
2021/12/09 01:04:07;;;;;;;;;;;7.10;99.90;;;;;;4912510;29;20339;-69
2021/12/09 01:06:32;;;;;;;;;;;7.00;99.90;;;;;;4911316;29;20040;-70
2021/12/09 01:08:58;;;;;;;;;;;7.00;99.90;;;;;;4904733;29;19941;-70
2021/12/09 01:11:24;;;;;;;;;;;7.00;99.90;;;;;;4912796;29;20014;-70
2021/12/09 01:13:49;;;;;;;;;;;7.10;99.90;;;;;;4905919;29;19911;-71
2021/12/09 01:16:15;;;;;;;;;;;7.10;99.90;;;;;;4911333;29;19930;-69
2021/12/09 01:18:41;;;;;;;;;;;7.20;99.90;;;;;;4908459;29;19918;-70
2021/12/09 01:21:06;;;;;;;;;;;7.10;99.90;;;;;;4906479;29;19950;-70
2021/12/09 01:23:32;;;;;;;;;;;7.10;99.90;;;;;;4904727;29;19965;-71
2021/12/09 01:26:03;;;;;;;;;;;7.20;99.90;;;;;;4909924;29;19911;-69
2021/12/09 01:28:33;;;;;;;;;;;7.10;99.90;;;;;;4909456;29;20364;-71
2021/12/09 01:31:04;;;;;;;;;;;7.20;99.90;;;;;;4909924;29;20293;-69
2021/12/09 01:33:31;;;;;;;;;;;7.20;99.90;;;;;;4898706;29;19915;-69
2021/12/09 01:35:56;;;;;;;;;;;7.20;99.90;;;;;;4910168;29;19915;-70
2021/12/09 01:38:24;;;;;;;;;;;7.20;99.90;;;;;;4901785;29;20401;-69
2021/12/09 01:40:50;;;;;;;;;;;7.20;99.90;;;;;;4908533;29;20409;-70
2021/12/09 01:43:15;;;;;;;;;;;7.20;99.90;;;;;;4914121;29;19911;-69
2021/12/09 01:45:41;;;;;;;;;;;7.30;99.90;;;;;;4910104;29;19966;-70
2021/12/09 01:48:07;;;;;;;;;;;7.20;99.90;;;;;;4912189;29;20422;-69
2021/12/09 01:50:33;;;;;;;;;;;7.20;99.90;;;;;;4901437;29;19915;-70
2021/12/09 01:52:59;;;;;;;;;;;7.20;99.90;;;;;;4905749;29;20334;-69
2021/12/09 01:55:26;;;;;;;;;;;7.20;99.90;;;;;;4908897;29;20014;-70
2021/12/09 01:57:52;;;;;;;;;;;7.20;99.90;;;;;;4901353;29;19911;-68
2021/12/09 02:00:19;;;;;;;;;;;7.20;99.90;;;;;;4909430;29;20001;-70
2021/12/09 02:02:45;;;;;;;;;;;7.20;99.90;;;;;;4909022;29;20382;-68
2021/12/09 02:05:11;;;;;;;;;;;7.30;99.90;;;;;;4908408;29;19950;-68
2021/12/09 02:07:37;;;;;;;;;;;7.30;99.90;;;;;;4904293;29;20014;-69
2021/12/09 02:10:04;;;;;;;;;;;7.30;99.90;;;;;;4915839;29;19907;-68
2021/12/09 02:12:30;;;;;;;;;;;7.20;99.90;;;;;;4910922;29;19922;-70
2021/12/09 02:14:59;;;;;;;;;;;7.20;99.90;;;;;;4909485;29;19915;-70
2021/12/09 02:17:26;;;;;;;;;;;7.30;99.90;;;;;;4901671;29;19943;-69
2021/12/09 02:19:52;;;;;;;;;;;7.40;99.90;;;;;;4892948;29;19919;-70
2021/12/09 02:22:17;;;;;;;;;;;7.30;99.90;;;;;;4901920;29;20042;-70
2021/12/09 02:24:43;;;;;;;;;;;7.20;99.90;;;;;;4908529;29;19911;-70
2021/12/09 02:27:09;;;;;;;;;;;7.10;99.90;;;;;;4904447;29;19911;-70
2021/12/09 02:29:34;;;;;;;;;;;7.10;99.90;;;;;;4918827;29;19911;-70
2021/12/09 02:32:01;;;;;;;;;;;7.10;99.90;;;;;;4902326;29;19919;-70
2021/12/09 02:34:27;;;;;;;;;;;7.20;99.90;;;;;;4914881;29;19907;-71
2021/12/09 02:36:53;;;;;;;;;;;7.10;99.90;;;;;;4908093;29;19919;-71
2021/12/09 02:39:19;;;;;;;;;;;7.10;99.90;;;;;;4914102;29;19918;-71
2021/12/09 02:41:46;;;;;;;;;;;7.10;99.90;;;;;;4913075;29;19915;-70
2021/12/09 02:44:12;;;;;;;;;;;7.10;99.90;;;;;;4914486;29;19918;-70
2021/12/09 02:46:39;;;;;;;;;;;7.00;99.90;;;;;;4912661;29;19914;-70
2021/12/09 02:49:06;;;;;;;;;;;7.00;99.90;;;;;;4914594;29;19962;-71
2021/12/09 02:51:32;;;;;;;;;;;7.00;99.90;;;;;;4916368;29;20401;-70
2021/12/09 02:53:57;;;;;;;;;;;7.00;99.90;;;;;;4915434;29;19907;-70
2021/12/09 02:56:23;;;;;;;;;;;7.10;99.90;;;;;;4913976;29;20391;-70
2021/12/09 02:58:48;;;;;;;;;;;7.00;99.90;;;;;;4912102;29;19911;-72
2021/12/09 03:01:15;;;;;;;;;;;7.00;99.90;;;;;;4914136;29;19921;-68
2021/12/09 03:03:53;;;;;;;;;;;6.90;99.90;;;;;;4914185;29;20318;-71
2021/12/09 03:06:20;;;;;;;;;;;6.90;99.90;;;;;;4910930;29;20018;-70
2021/12/09 03:08:46;;;;;;;;;;;6.90;99.90;;;;;;4904321;29;19919;-72
2021/12/09 03:11:14;;;;;;;;;;;6.90;99.90;;;;;;4911540;29;19926;-70
2021/12/09 03:13:40;;;;;;;;;;;6.80;99.90;;;;;;4915100;29;19907;-71
2021/12/09 03:16:07;;;;;;;;;;;6.80;99.90;;;;;;4914672;29;19910;-69
2021/12/09 03:18:40;;;;;;;;;;;6.80;99.90;;;;;;4908110;29;19919;-69
2021/12/09 03:21:16;;;;;;;;;;;6.80;99.90;;;;;;4906150;29;19918;-70
2021/12/09 03:23:42;;;;;;;;;;;6.80;99.90;;;;;;4904836;29;19915;-71
2021/12/09 03:26:07;;;;;;;;;;;6.80;99.90;;;;;;4904388;29;19918;-70
2021/12/09 03:28:33;;;;;;;;;;;6.70;99.90;;;;;;4911456;29;19918;-70
2021/12/09 03:30:58;;;;;;;;;;;6.70;99.90;;;;;;4906641;29;20296;-72
2021/12/09 03:33:24;;;;;;;;;;;6.70;99.90;;;;;;4903950;29;19921;-70
2021/12/09 03:36:00;;;;;;;;;;;6.70;99.90;;;;;;4917695;29;19915;-70
2021/12/09 03:38:25;;;;;;;;;;;6.70;99.90;;;;;;4914694;29;19911;-71
2021/12/09 03:40:51;;;;;;;;;;;6.70;99.90;;;;;;4912271;29;19911;-70
2021/12/09 03:43:17;;;;;;;;;;;6.70;99.90;;;;;;4913515;29;19912;-69
2021/12/09 03:45:43;;;;;;;;;;;6.70;99.90;;;;;;4912558;29;20358;-70
2021/12/09 03:48:08;;;;;;;;;;;6.70;99.90;;;;;;4908571;29;19911;-70
2021/12/09 03:50:34;;;;;;;;;;;6.60;99.90;;;;;;4913947;29;19911;-69
2021/12/09 03:52:59;;;;;;;;;;;6.60;99.90;;;;;;4910066;29;20000;-69
2021/12/09 03:55:25;;;;;;;;;;;6.60;99.90;;;;;;4914969;29;19923;-69
2021/12/09 03:57:51;;;;;;;;;;;6.50;99.90;;;;;;4925194;29;19918;-71
2021/12/09 04:00:16;;;;;;;;;;;6.50;99.90;;;;;;4927528;29;19919;-69
2021/12/09 04:02:42;;;;;;;;;;;6.50;99.90;;;;;;4908275;29;20358;-70
2021/12/09 04:05:08;;;;;;;;;;;6.50;99.90;;;;;;4911529;29;19920;-71
2021/12/09 04:07:34;;;;;;;;;;;6.50;99.90;;;;;;4909671;29;20368;-72
2021/12/09 04:09:59;;;;;;;;;;;6.50;99.90;;;;;;4914463;29;19915;-72
2021/12/09 04:12:25;;;;;;;;;;;6.50;99.90;;;;;;4916549;29;20392;-70
2021/12/09 04:14:50;;;;;;;;;;;6.50;99.90;;;;;;4911626;29;20002;-72
2021/12/09 04:17:16;;;;;;;;;;;6.50;99.90;;;;;;4915740;29;19911;-69
2021/12/09 04:19:47;;;;;;;;;;;6.50;99.90;;;;;;4913641;29;19911;-70
2021/12/09 04:22:17;;;;;;;;;;;6.40;99.90;;;;;;4918189;29;19911;-69
2021/12/09 04:24:43;;;;;;;;;;;6.40;99.90;;;;;;4916136;29;19911;-72
2021/12/09 04:27:13;;;;;;;;;;;6.40;99.90;;;;;;4915520;29;20002;-71
2021/12/09 04:29:39;;;;;;;;;;;6.40;99.90;;;;;;4908736;29;19911;-69
2021/12/09 04:32:05;;;;;;;;;;;6.40;99.90;;;;;;4914510;29;19922;-71
2021/12/09 04:34:30;;;;;;;;;;;6.40;99.90;;;;;;4915368;29;20039;-72
2021/12/09 04:36:57;;;;;;;;;;;6.40;99.90;;;;;;4909529;29;19911;-70
2021/12/09 04:39:22;;;;;;;;;;;6.30;99.90;;;;;;4915315;29;19959;-70
2021/12/09 04:41:48;;;;;;;;;;;6.30;99.90;;;;;;4918864;29;19915;-70
2021/12/09 04:44:13;;;;;;;;;;;6.30;99.90;;;;;;4914141;29;19954;-71
2021/12/09 04:46:40;;;;;;;;;;;6.20;99.90;;;;;;4915153;29;19911;-69
2021/12/09 04:49:06;;;;;;;;;;;6.20;99.90;;;;;;4913902;29;19946;-69
2021/12/09 04:51:32;;;;;;;;;;;6.20;99.90;;;;;;4914781;29;19965;-70
2021/12/09 04:53:57;;;;;;;;;;;6.20;99.90;;;;;;4909029;29;19978;-70
2021/12/09 04:56:23;;;;;;;;;;;6.20;99.90;;;;;;4899760;29;19918;-69
2021/12/09 04:58:49;;;;;;;;;;;6.20;99.90;;;;;;4915369;29;19911;-70
2021/12/09 05:01:14;;;;;;;;;;;6.20;99.90;;;;;;4914960;29;19911;-71
2021/12/09 05:03:44;;;;;;;;;;;6.10;99.90;;;;;;4917980;29;20010;-70
2021/12/09 05:06:10;;;;;;;;;;;6.10;99.90;;;;;;4916246;29;19911;-69
2021/12/09 05:08:38;;;;;;;;;;;6.10;99.90;;;;;;4915750;29;19926;-70
2021/12/09 05:11:11;;;;;;;;;;;6.10;99.90;;;;;;4917781;29;20059;-70
2021/12/09 05:13:38;;;;;;;;;;;6.10;99.90;;;;;;4908404;29;19970;-70
2021/12/09 05:16:05;;;;;;;;;;;6.10;99.90;;;;;;4917033;29;19915;-70
2021/12/09 05:18:33;;;;;;;;;;;6.10;99.90;;;;;;4915976;29;19975;-70
2021/12/09 05:21:00;;;;;;;;;;;6.10;99.90;;;;;;4917230;29;19913;-69
2021/12/09 05:23:25;;;;;;;;;;;6.10;99.90;;;;;;4911687;29;20058;-69
2021/12/09 05:25:52;;;;;;;;;;;6.10;99.90;;;;;;4906573;29;20361;-71
2021/12/09 05:28:18;;;;;;;;;;;6.10;99.90;;;;;;4916181;29;19911;-69
2021/12/09 05:33:30;;;;;;;;;;;6.10;99.90;;;;;;4914742;29;19926;-69
2021/12/09 05:35:55;;;;;;;;;;;6.20;99.90;;;;;;4920678;29;19911;-70
2021/12/09 05:38:21;;;;;;;;;;;6.20;99.90;;;;;;4915157;29;19918;-70
2021/12/09 05:40:47;;;;;;;;;;;6.20;99.90;;;;;;4915522;29;19915;-70
2021/12/09 05:43:13;;;;;;;;;;;6.20;99.90;;;;;;4911750;29;19974;-70
2021/12/09 05:45:41;;;;;;;;;;;6.20;99.90;;;;;;4909877;29;19915;-70
2021/12/09 05:48:07;;;;;;;;;;;6.20;99.90;;;;;;4909178;29;19911;-70
2021/12/09 05:50:33;;;;;;;;;;;6.20;99.90;;;;;;4907913;29;19926;-71
2021/12/09 05:52:59;;;;;;;;;;;6.20;99.90;;;;;;4914945;29;20285;-69
2021/12/09 05:55:24;;;;;;;;;;;6.10;99.90;;;;;;4915661;29;19998;-70
2021/12/09 05:57:50;;;;;;;;;;;6.10;99.90;;;;;;4913593;29;19926;-69
2021/12/09 06:00:16;;;;;;;;;;;6.10;99.90;;;;;;4914413;29;19917;-70
2021/12/09 06:02:41;;;;;;;;;;;6.10;99.90;;;;;;4912546;29;19911;-71
2021/12/09 06:05:07;;;;;;;;;;;6.10;99.90;;;;;;4909960;29;19918;-70
2021/12/09 06:07:33;;;;;;;;;;;6.10;99.90;;;;;;4916053;29;20277;-70
2021/12/09 06:10:00;;;;;;;;;;;6.00;99.90;;;;;;4908778;29;19911;-69
2021/12/09 06:12:27;;;;;;;;;;;6.00;99.90;;;;;;4911646;29;19958;-70
2021/12/09 06:14:52;;;;;;;;;;;6.00;99.90;;;;;;4910451;29;19915;-70
2021/12/09 06:17:18;;;;;;;;;;;6.10;99.90;;;;;;4929304;29;19977;-70
2021/12/09 06:19:44;;;;;;;;;;;6.10;99.90;;;;;;4906645;29;19919;-71
2021/12/09 06:22:09;;;;;;;;;;;6.10;99.90;;;;;;4914477;29;19911;-70
2021/12/09 06:24:35;;;;;;;;;;;6.20;99.90;;;;;;4912349;29;19923;-68
2021/12/09 06:27:01;;;;;;;;;;;6.20;99.90;;;;;;4914922;29;19911;-71
2021/12/09 06:29:27;;;;;;;;;;;6.30;99.90;;;;;;4904833;29;19917;-71
2021/12/09 06:31:52;;;;;;;;;;;6.20;99.90;;;;;;4913870;29;19919;-69
2021/12/09 06:34:18;;;;;;;;;;;6.10;99.90;;;;;;4922228;29;19910;-69
2021/12/09 06:36:44;;;;;;;;;;;6.10;99.90;;;;;;4913094;29;19983;-70
2021/12/09 06:39:12;;;;;;;;;;;6.10;99.90;;;;;;4915366;29;19911;-70
2021/12/09 06:41:38;;;;;;;;;;;6.10;99.90;;;;;;4912829;29;19911;-70
2021/12/09 06:44:04;;;;;;;;;;;6.10;99.90;;;;;;4908735;29;19918;-69
2021/12/09 06:46:30;;;;;;;;;;;6.10;99.90;;;;;;4912889;29;19915;-71
2021/12/09 06:48:55;;;;;;;;;;;6.10;99.90;;;;;;4913466;29;19923;-70
2021/12/09 06:51:21;;;;;;;;;;;6.10;99.90;;;;;;4912324;29;19962;-71
2021/12/09 06:53:47;;;;;;;;;;;6.10;99.90;;;;;;4915745;29;19930;-69
2021/12/09 06:56:12;;;;;;;;;;;6.10;99.90;;;;;;4908004;29;20594;-70
2021/12/09 06:58:38;;;;;;;;;;;6.20;99.90;;;;;;4907004;29;19950;-70
2021/12/09 07:01:05;;;;;;;;;;;6.10;99.90;;;;;;4913135;29;20370;-70
2021/12/09 07:03:30;;;;;;;;;;;6.10;99.90;;;;;;4913123;29;20002;-70
2021/12/09 07:05:57;;;;;;;;;;;6.10;99.90;;;;;;4914651;29;20394;-71
2021/12/09 07:08:23;;;;;;;;;;;6.00;99.90;;;;;;4914917;29;20256;-70
2021/12/09 07:10:49;;;;;;;;;;;5.90;99.90;;;;;;4915048;29;19911;-69
2021/12/09 07:13:14;;;;;;;;;;;5.90;99.90;;;;;;4914380;29;20285;-70
2021/12/09 07:15:40;;;;;;;;;;;5.90;99.90;;;;;;4906942;29;19958;-69
2021/12/09 07:18:06;;;;;;;;;;;5.90;99.90;;;;;;4905067;29;19998;-70
2021/12/09 07:20:32;;;;;;;;;;;5.90;99.90;;;;;;4907291;29;20010;-71
2021/12/09 07:22:58;;;;;;;;;;;5.90;99.90;;;;;;4911292;29;19911;-70
2021/12/09 07:25:25;;;;;;;;;;;5.90;99.90;;;;;;4916049;29;19925;-70
2021/12/09 07:27:50;;;;;;;;;;;6.10;99.90;;;;;;4916562;29;19918;-70
2021/12/09 07:30:17;;;;;;;;;;;6.00;99.90;;;;;;4911235;29;20400;-72
2021/12/09 07:32:43;;;;;;;;;;;6.10;99.90;;;;;;4916893;29;20308;-70
2021/12/09 07:35:09;;;;;;;;;;;6.10;99.90;;;;;;4907148;29;20370;-68
2021/12/09 07:37:37;;;;;;;;;;;6.10;99.90;;;;;;4907924;29;19918;-69
2021/12/09 07:40:03;;;;;;;;;;;6.00;99.90;;;;;;4910516;29;20250;-69
2021/12/09 07:42:29;;;;;;;;;;;6.00;99.90;;;;;;4916139;29;19918;-70
2021/12/09 07:44:54;;;;;;;;;;;6.00;99.90;;;;;;4903295;29;19915;-70
2021/12/09 07:47:20;;;;;;;;;;;6.10;99.90;;;;;;4907408;29;19918;-70
2021/12/09 07:49:46;;;;;;;;;;;6.10;99.90;;;;;;4910926;29;19911;-71
2021/12/09 07:52:11;;;;;;;;;;;6.10;99.90;;;;;;4913587;29;19915;-70
2021/12/09 07:54:37;;;;;;;;;;;6.00;99.90;;;;;;4913748;29;19946;-70
2021/12/09 07:57:03;;;;;;;;;;;5.90;99.90;;;;;;4910737;29;19962;-69
2021/12/09 07:59:28;;;;;;;;;;;5.90;99.90;;;;;;4909720;29;19911;-73
2021/12/09 08:01:54;;;;;;;;;;;5.90;99.90;;;;;;4913241;29;20270;-68
2021/12/09 08:04:20;;;;;;;;;;;5.80;99.90;;;;;;4911824;29;19907;-70
2021/12/09 08:06:45;;;;;;;;;;;5.80;99.90;;;;;;4911854;29;19911;-71
2021/12/09 08:09:11;;;;;;;;;;;5.80;99.90;;;;;;4911394;29;19913;-69
2021/12/09 08:11:37;;;;;;;;;;;5.80;99.90;;;;;;4909595;29;19919;-70
2021/12/09 08:14:04;;;;;;;;;;;5.90;99.90;;;;;;4911832;29;20433;-71
2021/12/09 08:16:33;;;;;;;;;;;5.90;99.90;;;;;;4912265;29;19946;-70
2021/12/09 08:18:59;;;;;;;;;;;6.00;99.90;;;;;;4913061;29;20025;-70
2021/12/09 08:21:26;;;;;;;;;;;6.00;99.90;;;;;;4901914;29;19998;-70
2021/12/09 08:23:52;;;;;;;;;;;6.00;99.90;;;;;;4914239;29;20370;-70
2021/12/09 08:26:19;;;;;;;;;;;6.00;99.90;;;;;;4912232;29;19916;-71
2021/12/09 08:28:44;;;;;;;;;;;6.00;99.90;;;;;;4910708;29;19915;-68
2021/12/09 08:31:10;;;;;;;;;;;6.10;99.90;;;;;;4909600;29;19926;-69
2021/12/09 08:33:35;;;;;;;;;;;6.10;99.90;;;;;;4904514;29;19929;-71
2021/12/09 08:36:01;;;;;;;;;;;6.10;99.90;;;;;;4910683;29;20365;-68
2021/12/09 08:38:27;;;;;;;;;;;6.20;99.90;;;;;;4912058;29;20421;-70
2021/12/09 08:40:53;;;;;;;;;;;6.20;99.90;;;;;;4912430;29;19911;-70
2021/12/09 08:43:19;;;;;;;;;;;6.40;99.90;;;;;;4923775;29;19913;-70
2021/12/09 08:45:45;;;;;;;;;;;6.50;99.90;;;;;;4915777;29;20005;-69
2021/12/09 08:48:11;;;;;;;;;;;6.60;99.90;;;;;;4912966;29;19911;-69
2021/12/09 08:50:38;;;;;;;;;;;6.70;99.90;;;;;;4912187;29;19911;-69
2021/12/09 08:53:05;;;;;;;;;;;6.60;99.90;;;;;;4909023;29;20014;-70
2021/12/09 08:55:31;;;;;;;;;;;6.60;99.90;;;;;;4911252;29;20393;-70
2021/12/09 08:57:57;;;;;;;;;;;6.60;99.90;;;;;;4902034;29;19927;-69
2021/12/09 09:00:26;;;;;;;;;;;6.60;99.90;;;;;;4908001;29;19921;-71
2021/12/09 09:02:52;;;;;;;;;;;6.60;99.90;;;;;;4914423;29;19915;-70
2021/12/09 09:05:18;;;;;;;;;;;6.80;99.90;;;;;;4906274;29;19907;-70
2021/12/09 09:07:45;;;;;;;;;;;6.80;99.90;;;;;;4911384;29;19911;-70
2021/12/09 09:10:11;;;;;;;;;;;6.80;99.90;;;;;;4911968;29;20346;-70
2021/12/09 09:12:37;;;;;;;;;;;6.90;99.90;;;;;;4906926;29;19996;-69
2021/12/09 09:15:06;;;;;;;;;;;6.80;99.90;;;;;;4910182;29;20400;-71
2021/12/09 09:17:31;;;;;;;;;;;6.90;99.90;;;;;;4916043;29;19915;-71
2021/12/09 09:19:57;;;;;;;;;;;6.90;99.90;;;;;;4905166;29;19911;-70
2021/12/09 09:22:22;;;;;;;;;;;6.90;99.90;;;;;;4905387;29;19911;-70
2021/12/09 09:24:48;;;;;;;;;;;7.00;99.90;;;;;;4911266;29;20002;-71
2021/12/09 09:27:13;;;;;;;;;;;7.10;99.90;;;;;;4912144;29;19939;-72
2021/12/09 09:29:40;;;;;;;;;;;7.10;99.90;;;;;;4921555;29;20330;-69
2021/12/09 09:32:07;;;;;;;;;;;7.20;99.90;;;;;;4915055;29;20297;-70
2021/12/09 09:34:32;;;;;;;;;;;7.30;99.90;;;;;;4917285;29;20373;-68
2021/12/09 09:36:58;;;;;;;;;;;7.30;99.90;;;;;;4908879;29;19911;-70
2021/12/09 09:39:28;;;;;;;;;;;7.30;99.90;;;;;;4912723;29;19911;-70
2021/12/09 09:42:00;;;;;;;;;;;7.40;99.90;;;;;;4917536;29;20376;-70
2021/12/09 09:44:33;;;;;;;;;;;7.40;99.90;;;;;;4912793;29;19933;-69
2021/12/09 09:47:00;;;;;;;;;;;7.40;99.90;;;;;;4908015;29;19919;-68
2021/12/09 09:49:25;;;;;;;;;;;7.20;99.90;;;;;;4913299;29;19918;-70
2021/12/09 09:51:51;;;;;;;;;;;7.30;99.90;;;;;;4907606;29;19919;-71
2021/12/09 09:54:17;;;;;;;;;;;7.30;99.90;;;;;;4915213;29;19966;-70
2021/12/09 09:56:44;;;;;;;;;;;7.10;99.90;;;;;;4913861;29;19947;-71
2021/12/09 09:59:12;;;;;;;;;;;7.10;99.90;;;;;;4905125;29;19965;-70
2021/12/09 10:01:39;;;;;;;;;;;7.20;99.90;;;;;;4909165;29;19911;-69
2021/12/09 10:04:25;;;;;;;;;;;7.30;99.90;;;;;;4913697;29;20325;-70
2021/12/09 10:06:51;;;;;;;;;;;7.30;99.90;;;;;;4911115;29;19911;-68
2021/12/09 10:09:16;;;;;;;;;;;7.30;99.90;;;;;;4912237;29;21654;-70
2021/12/09 10:11:42;;;;;;;;;;;7.40;99.90;;;;;;4911465;29;19946;-70
2021/12/09 10:14:13;;;;;;;;;;;7.50;99.90;;;;;;4913644;29;19915;-69
2021/12/09 10:16:40;;;;;;;;;;;7.50;99.90;;;;;;4916198;29;19970;-70
2021/12/09 10:19:16;;;;;;;;;;;7.60;99.90;;;;;;4912250;29;19911;-71
2021/12/09 10:21:42;;;;;;;;;;;7.60;99.90;;;;;;4916450;29;19915;-69
2021/12/09 10:24:08;;;;;;;;;;;7.70;99.90;;;;;;4915459;29;20557;-70
2021/12/09 10:26:39;;;;;;;;;;;7.70;99.90;;;;;;4914746;29;20246;-71
2021/12/09 10:29:26;;;;;;;;;;;7.70;99.90;;;;;;4913147;29;19954;-69
2021/12/09 10:31:59;;;;;;;;;;;7.70;99.90;;;;;;4905745;29;20377;-71
2021/12/09 10:34:45;;;;;;;;;;;7.80;99.90;;;;;;4916645;29;20014;-69
2021/12/09 10:37:16;;;;;;;;;;;7.80;99.90;;;;;;4916548;29;19958;-69
2021/12/09 10:39:41;;;;;;;;;;;7.90;99.90;;;;;;4913552;29;20388;-69
2021/12/09 10:42:10;;;;;;;;;;;8.00;99.90;;;;;;4920987;29;20009;-70
2021/12/09 10:44:40;;;;;;;;;;;8.10;99.90;;;;;;4916722;29;19919;-68
2021/12/09 10:47:11;;;;;;;;;;;8.10;99.90;;;;;;4913079;29;20335;-70
2021/12/09 10:49:49;;;;;;;;;;;8.20;99.90;;;;;;4905218;29;19927;-70
2021/12/09 10:52:26;;;;;;;;;;;8.40;99.90;;;;;;4906690;29;20013;-69
2021/12/09 10:54:52;;;;;;;;;;;8.50;99.90;;;;;;4912183;29;19911;-69
2021/12/09 10:57:29;;;;;;;;;;;8.60;99.90;;;;;;4914122;29;20768;-71
2021/12/09 10:59:55;;;;;;;;;;;8.60;99.90;;;;;;4913036;29;19955;-70
2021/12/09 11:02:21;;;;;;;;;;;8.60;99.90;;;;;;4915570;29;19959;-71
2021/12/09 11:05:06;;;;;;;;;;;8.70;99.90;;;;;;4910630;29;19911;-71
2021/12/09 11:07:32;;;;;;;;;;;8.90;99.90;;;;;;4909092;29;19911;-70
2021/12/09 11:10:45;;;;;;;;;;;9.10;99.90;;;;;;4913736;29;20306;-69
2021/12/09 11:13:10;;;;;;;;;;;9.20;99.90;;;;;;4891717;29;20354;-72
2021/12/09 11:15:47;;;;;;;;;;;9.30;99.90;;;;;;4877188;29;19911;-69
2021/12/09 11:18:43;;;;;;;;;;;9.30;99.90;;;;;;4893557;29;19918;-71
2021/12/09 11:21:09;;;;;;;;;;;9.20;99.90;;;;;;4900137;29;19994;-69
2021/12/09 11:23:37;;;;;;;;;;;8.90;99.90;;;;;;4913671;29;19994;-69
2021/12/09 11:26:18;;;;;;;;;;;8.80;99.90;;;;;;4913290;29;19930;-70
2021/12/09 11:29:01;;;;;;;;;;;8.90;99.90;;;;;;4909100;29;20005;-69
2021/12/09 11:31:31;;;;;;;;;;;9.10;99.90;;;;;;4911398;29;19919;-71
2021/12/09 11:33:59;;;;;;;;;;;9.10;99.90;;;;;;4913331;29;19918;-70
2021/12/09 11:36:45;;;;;;;;;;;9.40;99.90;;;;;;4903217;29;20331;-69
2021/12/09 11:39:28;;;;;;;;;;;9.50;99.90;;;;;;4911030;29;20416;-69
2021/12/09 11:41:56;;;;;;;;;;;9.70;99.90;;;;;;4914706;29;19964;-69
2021/12/09 11:44:22;;;;;;;;;;;9.70;99.90;;;;;;4904292;29;19911;-71
2021/12/09 11:46:48;;;;;;;;;;;9.70;99.90;;;;;;4910887;29;19911;-70
2021/12/09 11:49:13;;;;;;;;;;;9.70;99.90;;;;;;4904883;29;20338;-70
2021/12/09 11:51:39;;;;;;;;;;;9.70;99.90;;;;;;4912106;29;19923;-71
2021/12/09 11:54:06;;;;;;;;;;;9.50;99.90;;;;;;4913738;29;20290;-70
2021/12/09 12:11:05;;;;;;;;;;;9.20;99.90;;;;;;4906253;29;19957;-69
2021/12/09 12:13:31;;;;;;;;;;;9.10;99.90;;;;;;4912997;29;20029;-70
2021/12/09 12:16:00;;;;;;;;;;;9.10;99.90;;;;;;4908145;29;19918;-71
2021/12/09 12:21:13;;;;;;;;;;;9.20;99.90;;;;;;4914913;29;19911;-69
2021/12/09 12:34:55;;;;;;;;;;;9.50;99.90;;;;;;4917341;29;20033;-69
2021/12/09 12:37:57;;;;;;;;;;;9.60;99.90;;;;;;4905796;29;19942;-70
2021/12/09 12:40:23;;;;;;;;;;;9.50;99.90;;;;;;4907433;29;19918;-69
2021/12/09 12:42:58;;;;;;;;;;;9.50;99.90;;;;;;4919313;29;19911;-71
2021/12/09 12:46:11;;;;;;;;;;;9.50;99.90;;;;;;4926030;29;20366;-69
2021/12/09 12:48:35;;;;;;;;;;;9.60;99.90;;;;;;4901383;29;19926;-70
2021/12/09 12:51:13;;;;;;;;;;;9.70;99.90;;;;;;4916391;29;19907;-73
2021/12/09 12:53:42;;;;;;;;;;;9.70;99.90;;;;;;4911780;29;20064;-70
2021/12/09 12:56:43;;;;;;;;;;;9.70;99.90;;;;;;4914351;29;19907;-71
2021/12/09 12:59:12;;;;;;;;;;;9.60;99.90;;;;;;4858583;29;20371;-70
2021/12/09 13:01:47;;;;;;;;;;;9.70;99.90;;;;;;4900959;29;19917;-70
2021/12/09 13:07:24;;;;;;;;;;;9.50;99.90;;;;;;4906663;29;19907;-70
2021/12/09 13:10:02;;;;;;;;;;;9.40;99.90;;;;;;4908808;29;19934;-70
2021/12/09 13:12:44;;;;;;;;;;;9.40;99.90;;;;;;4909539;29;20282;-70
2021/12/09 13:15:25;;;;;;;;;;;9.30;99.90;;;;;;4913039;29;19915;-70
2021/12/09 13:18:01;;;;;;;;;;;9.30;99.90;;;;;;4914327;29;20298;-70
2021/12/09 13:20:32;;;;;;;;;;;9.40;99.90;;;;;;4915176;29;19911;-71
2021/12/09 13:23:21;;;;;;;;;;;9.40;99.90;;;;;;4914458;29;19966;-70
2021/12/09 13:26:08;;;;;;;;;;;9.50;99.90;;;;;;4915972;29;19918;-69
2021/12/09 13:28:35;;;;;;;;;;;9.50;99.90;;;;;;4912753;29;20511;-69
2021/12/09 13:31:09;;;;;;;;;;;9.60;99.90;;;;;;4907694;29;19965;-71
2021/12/09 13:46:35;;;;;;;;;;;9.60;99.90;;;;;;4916097;29;19950;-71
2021/12/09 13:49:17;;;;;;;;;;;9.60;99.90;;;;;;4912144;29;20354;-69
2021/12/09 13:54:23;;;;;;;;;;;9.40;99.90;;;;;;4912343;29;20266;-70
2021/12/09 13:56:53;;;;;;;;;;;9.40;99.90;;;;;;4901883;29;20270;-70
2021/12/09 13:59:19;;;;;;;;;;;9.40;99.90;;;;;;4911278;29;19994;-70
2021/12/09 14:01:45;;;;;;;;;;;9.40;99.90;;;;;;4916402;29;19950;-69
2021/12/09 14:04:11;;;;;;;;;;;9.50;99.90;;;;;;4912340;29;20409;-70
2021/12/09 14:06:46;;;;;;;;;;;9.50;99.90;;;;;;4907626;29;20384;-69
2021/12/09 14:09:11;;;;;;;;;;;9.50;99.90;;;;;;4915809;29;19915;-70
2021/12/09 14:11:44;;;;;;;;;;;9.50;99.90;;;;;;4905273;29;19935;-71
2021/12/09 14:14:14;;;;;;;;;;;9.40;99.90;;;;;;4916936;29;19974;-69
2021/12/09 14:16:51;;;;;;;;;;;9.30;99.90;;;;;;4899943;29;19915;-70
2021/12/09 14:21:48;;;;;;;;;;;9.40;99.90;;;;;;4918650;29;20434;-70
2021/12/09 14:24:16;;;;;;;;;;;9.40;99.90;;;;;;4912104;29;19954;-69
2021/12/09 14:26:42;;;;;;;;;;;9.50;99.90;;;;;;4911941;29;19926;-71
2021/12/09 14:29:08;;;;;;;;;;;9.50;99.90;;;;;;4912762;29;19911;-71
2021/12/09 14:31:44;;;;;;;;;;;9.50;99.90;;;;;;4911138;29;20741;-72
2021/12/09 14:34:10;;;;;;;;;;;9.70;99.90;;;;;;4913338;29;19911;-70
2021/12/09 14:36:36;;;;;;;;;;;9.70;99.90;;;;;;4913542;29;20027;-70
2021/12/09 14:39:06;;;;;;;;;;;9.60;99.90;;;;;;4904166;29;20436;-69
2021/12/09 14:41:31;;;;;;;;;;;9.50;99.90;;;;;;4909829;29;19911;-70
2021/12/09 14:43:57;;;;;;;;;;;9.60;99.90;;;;;;4915256;29;19917;-70
2021/12/09 14:46:26;;;;;;;;;;;9.60;99.90;;;;;;4909302;29;20005;-70
2021/12/09 14:48:53;;;;;;;;;;;9.60;99.90;;;;;;4913572;29;19949;-71
2021/12/09 14:51:20;;;;;;;;;;;9.50;99.90;;;;;;4912757;29;19911;-70
2021/12/09 14:53:48;;;;;;;;;;;9.40;99.90;;;;;;4902421;29;19937;-69
2021/12/09 14:56:19;;;;;;;;;;;9.40;99.90;;;;;;4913098;29;20377;-70
2021/12/09 14:58:45;;;;;;;;;;;9.30;99.90;;;;;;4914550;29;19914;-70
2021/12/09 15:01:16;;;;;;;;;;;9.10;99.90;;;;;;4912036;29;19942;-70
2021/12/09 15:03:51;;;;;;;;;;;9.00;99.90;;;;;;4904059;29;19975;-70
2021/12/09 15:06:22;;;;;;;;;;;9.10;99.90;;;;;;4908017;29;19911;-70
2021/12/09 15:08:51;;;;;;;;;;;9.10;99.90;;;;;;4915524;29;19967;-70
2021/12/09 15:11:18;;;;;;;;;;;9.00;99.90;;;;;;4896897;29;20329;-69
2021/12/09 15:13:49;;;;;;;;;;;8.90;99.90;;;;;;4912617;29;19911;-71
2021/12/09 15:16:22;;;;;;;;;;;8.90;99.90;;;;;;4910566;29;19958;-70
2021/12/09 15:18:48;;;;;;;;;;;8.90;99.90;;;;;;4913234;29;19966;-68
2021/12/09 15:21:20;;;;;;;;;;;8.90;99.90;;;;;;4914775;29;19970;-70
2021/12/09 15:23:49;;;;;;;;;;;8.90;99.90;;;;;;4913824;29;19997;-70
2021/12/09 15:26:17;;;;;;;;;;;8.80;99.90;;;;;;4912675;29;19967;-68
2021/12/09 15:28:43;;;;;;;;;;;8.70;99.90;;;;;;4912090;29;20002;-70